sensor_id;sensor_type;location;lat;lon;timestamp;pressure;altitude;pressure_sealevel;temperature;humidity
41596;BME280;27283;52.504;13.358;2023-03-04T00:00:50;101471.22;;;0.93;100.00
41596;BME280;27283;52.504;13.358;2023-03-04T00:03:22;101468.38;;;0.80;100.00
41596;BME280;27283;52.504;13.358;2023-03-04T00:05:56;101465.47;;;0.84;100.00
41596;BME280;27283;52.504;13.358;2023-03-04T00:08:28;101464.63;;;0.84;100.00
41596;BME280;27283;52.504;13.358;2023-03-04T00:10:59;101458.75;;;0.79;100.00
41596;BME280;27283;52.504;13.358;2023-03-04T00:13:32;101461.56;;;0.92;100.00
41596;BME280;27283;52.504;13.358;2023-03-04T00:16:04;101458.91;;;0.92;100.00
41596;BME280;27283;52.504;13.358;2023-03-04T00:18:36;101450.56;;;0.83;100.00
41596;BME280;27283;52.504;13.358;2023-03-04T00:21:10;101447.56;;;0.90;100.00
41596;BME280;27283;52.504;13.358;2023-03-04T00:23:41;101443.88;;;1.08;100.00
41596;BME280;27283;52.504;13.358;2023-03-04T00:26:14;101449.81;;;1.12;99.71
41596;BME280;27283;52.504;13.358;2023-03-04T00:28:45;101445.16;;;1.01;100.00
41596;BME280;27283;52.504;13.358;2023-03-04T00:31:17;101441.25;;;0.92;100.00
41596;BME280;27283;52.504;13.358;2023-03-04T00:33:49;101435.69;;;0.97;100.00
41596;BME280;27283;52.504;13.358;2023-03-04T00:36:23;101442.84;;;1.11;100.00
41596;BME280;27283;52.504;13.358;2023-03-04T00:38:55;101445.16;;;1.01;100.00
41596;BME280;27283;52.504;13.358;2023-03-04T00:41:26;101445.94;;;1.03;99.86
41596;BME280;27283;52.504;13.358;2023-03-04T00:43:59;101436.34;;;1.16;99.84
41596;BME280;27283;52.504;13.358;2023-03-04T00:46:30;101435.38;;;1.17;99.38
41596;BME280;27283;52.504;13.358;2023-03-04T00:49:02;101433.94;;;1.12;99.92
41596;BME280;27283;52.504;13.358;2023-03-04T00:51:36;101432.28;;;1.25;99.78
41596;BME280;27283;52.504;13.358;2023-03-04T00:54:07;101436.94;;;1.21;99.34
41596;BME280;27283;52.504;13.358;2023-03-04T00:56:39;101437.09;;;1.18;99.34
41596;BME280;27283;52.504;13.358;2023-03-04T00:59:10;101434.75;;;1.28;99.17
41596;BME280;27283;52.504;13.358;2023-03-04T01:01:41;101429.09;;;1.34;98.71
41596;BME280;27283;52.504;13.358;2023-03-04T01:04:13;101423.00;;;1.18;99.35
41596;BME280;27283;52.504;13.358;2023-03-04T01:06:48;101420.41;;;1.32;98.54
41596;BME280;27283;52.504;13.358;2023-03-04T01:09:20;101414.91;;;1.35;98.83
41596;BME280;27283;52.504;13.358;2023-03-04T01:11:51;101422.38;;;1.29;98.69
41596;BME280;27283;52.504;13.358;2023-03-04T01:14:23;101421.41;;;1.46;98.29
41596;BME280;27283;52.504;13.358;2023-03-04T01:16:55;101414.38;;;1.45;97.91
41596;BME280;27283;52.504;13.358;2023-03-04T01:19:27;101414.16;;;1.33;97.13
41596;BME280;27283;52.504;13.358;2023-03-04T01:22:01;101409.00;;;1.46;97.44
41596;BME280;27283;52.504;13.358;2023-03-04T01:24:32;101409.94;;;1.45;97.27
41596;BME280;27283;52.504;13.358;2023-03-04T01:27:04;101394.31;;;1.40;97.10
41596;BME280;27283;52.504;13.358;2023-03-04T01:29:35;101392.63;;;1.54;96.88
41596;BME280;27283;52.504;13.358;2023-03-04T01:32:33;101398.00;;;1.52;96.82
41596;BME280;27283;52.504;13.358;2023-03-04T01:35:07;101390.47;;;1.75;96.17
41596;BME280;27283;52.504;13.358;2023-03-04T01:37:43;101387.16;;;1.71;96.01
41596;BME280;27283;52.504;13.358;2023-03-04T01:40:15;101396.00;;;1.86;95.70
41596;BME280;27283;52.504;13.358;2023-03-04T01:42:47;101388.00;;;1.72;95.87
41596;BME280;27283;52.504;13.358;2023-03-04T01:45:20;101385.69;;;1.82;95.34
41596;BME280;27283;52.504;13.358;2023-03-04T01:47:51;101380.66;;;1.77;96.01
41596;BME280;27283;52.504;13.358;2023-03-04T01:50:28;101385.69;;;1.82;95.55
41596;BME280;27283;52.504;13.358;2023-03-04T01:53:04;101373.84;;;1.87;95.87
41596;BME280;27283;52.504;13.358;2023-03-04T01:55:36;101375.63;;;2.16;94.17
41596;BME280;27283;52.504;13.358;2023-03-04T01:58:09;101370.44;;;2.00;95.25
41596;BME280;27283;52.504;13.358;2023-03-04T02:00:43;101366.16;;;2.11;94.95
41596;BME280;27283;52.504;13.358;2023-03-04T02:03:17;101362.28;;;2.03;95.00
41596;BME280;27283;52.504;13.358;2023-03-04T02:05:52;101357.16;;;2.14;94.20
41596;BME280;27283;52.504;13.358;2023-03-04T02:08:26;101368.06;;;1.95;95.30
41596;BME280;27283;52.504;13.358;2023-03-04T02:10:58;101362.97;;;1.92;95.60
41596;BME280;27283;52.504;13.358;2023-03-04T02:13:30;101357.53;;;2.08;95.05
41596;BME280;27283;52.504;13.358;2023-03-04T02:16:04;101357.63;;;2.21;94.75
41596;BME280;27283;52.504;13.358;2023-03-04T02:18:35;101353.25;;;2.20;94.88
41596;BME280;27283;52.504;13.358;2023-03-04T02:21:19;101345.50;;;2.31;94.47
41596;BME280;27283;52.504;13.358;2023-03-04T02:24:09;101351.72;;;2.30;95.07
41596;BME280;27283;52.504;13.358;2023-03-04T02:26:46;101350.50;;;2.21;95.54
41596;BME280;27283;52.504;13.358;2023-03-04T02:29:18;101339.41;;;2.29;95.58
41596;BME280;27283;52.504;13.358;2023-03-04T02:31:51;101331.34;;;2.30;95.54
41596;BME280;27283;52.504;13.358;2023-03-04T02:34:27;101327.16;;;2.41;95.58
41596;BME280;27283;52.504;13.358;2023-03-04T02:37:01;101334.69;;;2.61;94.35
41596;BME280;27283;52.504;13.358;2023-03-04T02:39:35;101322.78;;;2.40;95.72
41596;BME280;27283;52.504;13.358;2023-03-04T02:42:12;101317.09;;;2.46;95.84
41596;BME280;27283;52.504;13.358;2023-03-04T02:44:46;101317.47;;;2.40;95.98
41596;BME280;27283;52.504;13.358;2023-03-04T02:47:18;101314.00;;;2.66;94.53
41596;BME280;27283;52.504;13.358;2023-03-04T02:49:49;101305.81;;;2.42;95.55
41596;BME280;27283;52.504;13.358;2023-03-04T02:52:22;101308.75;;;2.52;95.42
41596;BME280;27283;52.504;13.358;2023-03-04T02:54:54;101312.66;;;2.46;95.87
41596;BME280;27283;52.504;13.358;2023-03-04T02:57:29;101305.22;;;2.52;95.37
41596;BME280;27283;52.504;13.358;2023-03-04T03:00:00;101307.72;;;2.68;95.22
41596;BME280;27283;52.504;13.358;2023-03-04T03:02:32;101310.50;;;2.66;94.39
41596;BME280;27283;52.504;13.358;2023-03-04T03:05:04;101310.38;;;2.40;95.87
41596;BME280;27283;52.504;13.358;2023-03-04T03:07:36;101310.03;;;2.59;95.57
41596;BME280;27283;52.504;13.358;2023-03-04T03:10:09;101308.06;;;2.48;96.06
41596;BME280;27283;52.504;13.358;2023-03-04T03:12:44;101299.41;;;2.59;95.67
41596;BME280;27283;52.504;13.358;2023-03-04T03:15:16;101296.84;;;2.58;96.30
41596;BME280;27283;52.504;13.358;2023-03-04T03:17:48;101302.63;;;2.64;96.05
41596;BME280;27283;52.504;13.358;2023-03-04T03:20:19;101299.41;;;2.59;96.69
41596;BME280;27283;52.504;13.358;2023-03-04T03:22:51;101296.41;;;2.51;96.81
41596;BME280;27283;52.504;13.358;2023-03-04T03:25:22;101300.91;;;2.63;97.40
41596;BME280;27283;52.504;13.358;2023-03-04T03:27:58;101299.78;;;2.68;97.32
41596;BME280;27283;52.504;13.358;2023-03-04T03:30:29;101287.34;;;2.68;97.93
41596;BME280;27283;52.504;13.358;2023-03-04T03:33:01;101291.22;;;2.50;98.64
41596;BME280;27283;52.504;13.358;2023-03-04T03:35:32;101281.00;;;2.43;98.85
41596;BME280;27283;52.504;13.358;2023-03-04T03:38:04;101284.88;;;2.65;98.31
41596;BME280;27283;52.504;13.358;2023-03-04T03:40:36;101281.22;;;2.53;98.93
41596;BME280;27283;52.504;13.358;2023-03-04T03:43:10;101281.13;;;2.55;98.51
41596;BME280;27283;52.504;13.358;2023-03-04T03:45:41;101277.16;;;2.75;98.11
41596;BME280;27283;52.504;13.358;2023-03-04T03:48:13;101272.25;;;2.69;98.16
41596;BME280;27283;52.504;13.358;2023-03-04T03:50:44;101267.13;;;2.65;98.28
41596;BME280;27283;52.504;13.358;2023-03-04T03:53:16;101269.69;;;2.67;98.45
41596;BME280;27283;52.504;13.358;2023-03-04T03:55:47;101267.81;;;2.69;98.09
41596;BME280;27283;52.504;13.358;2023-03-04T03:58:21;101262.91;;;2.76;98.17
41596;BME280;27283;52.504;13.358;2023-03-04T04:00:54;101261.31;;;2.73;98.16
41596;BME280;27283;52.504;13.358;2023-03-04T04:03:26;101264.06;;;2.72;98.51
41596;BME280;27283;52.504;13.358;2023-03-04T04:05:57;101256.94;;;2.59;99.14
41596;BME280;27283;52.504;13.358;2023-03-04T04:08:29;101265.78;;;2.73;98.17
41596;BME280;27283;52.504;13.358;2023-03-04T04:11:01;101259.84;;;2.69;98.97
41596;BME280;27283;52.504;13.358;2023-03-04T04:13:35;101262.81;;;2.64;98.91
41596;BME280;27283;52.504;13.358;2023-03-04T04:16:08;101270.69;;;2.79;98.27
41596;BME280;27283;52.504;13.358;2023-03-04T04:18:40;101259.84;;;2.82;98.13
41596;BME280;27283;52.504;13.358;2023-03-04T04:21:13;101260.47;;;2.73;98.43
41596;BME280;27283;52.504;13.358;2023-03-04T04:23:44;101256.97;;;2.72;98.73
41596;BME280;27283;52.504;13.358;2023-03-04T04:26:16;101261.13;;;2.76;98.67
41596;BME280;27283;52.504;13.358;2023-03-04T04:28:50;101254.63;;;2.68;98.98
41596;BME280;27283;52.504;13.358;2023-03-04T04:31:21;101255.09;;;3.00;97.76
41596;BME280;27283;52.504;13.358;2023-03-04T04:33:53;101248.91;;;2.87;98.22
41596;BME280;27283;52.504;13.358;2023-03-04T04:36:25;101245.19;;;2.76;98.74
41596;BME280;27283;52.504;13.358;2023-03-04T04:38:57;101247.00;;;2.76;98.92
41596;BME280;27283;52.504;13.358;2023-03-04T04:41:32;101243.25;;;2.65;98.89
41596;BME280;27283;52.504;13.358;2023-03-04T04:44:08;101235.53;;;2.75;98.99
41596;BME280;27283;52.504;13.358;2023-03-04T04:46:41;101236.63;;;2.86;98.21
41596;BME280;27283;52.504;13.358;2023-03-04T04:49:12;101248.13;;;2.72;98.58
41596;BME280;27283;52.504;13.358;2023-03-04T04:51:44;101234.03;;;2.71;99.01
41596;BME280;27283;52.504;13.358;2023-03-04T04:54:16;101240.63;;;2.78;99.07
41596;BME280;27283;52.504;13.358;2023-03-04T04:56:47;101232.22;;;2.72;98.94
41596;BME280;27283;52.504;13.358;2023-03-04T04:59:22;101243.59;;;2.74;98.99
41596;BME280;27283;52.504;13.358;2023-03-04T05:01:54;101232.00;;;2.75;99.07
41596;BME280;27283;52.504;13.358;2023-03-04T05:04:26;101230.22;;;2.88;98.26
41596;BME280;27283;52.504;13.358;2023-03-04T05:06:57;101229.69;;;2.83;98.36
41596;BME280;27283;52.504;13.358;2023-03-04T05:09:29;101227.03;;;2.83;98.84
41596;BME280;27283;52.504;13.358;2023-03-04T05:12:01;101232.78;;;2.90;98.34
41596;BME280;27283;52.504;13.358;2023-03-04T05:14:35;101226.50;;;2.91;98.15
41596;BME280;27283;52.504;13.358;2023-03-04T05:17:07;101235.31;;;2.91;97.91
41596;BME280;27283;52.504;13.358;2023-03-04T05:19:38;101231.84;;;3.16;97.08
41596;BME280;27283;52.504;13.358;2023-03-04T05:22:14;101234.16;;;2.95;98.07
41596;BME280;27283;52.504;13.358;2023-03-04T05:24:46;101229.38;;;2.88;98.64
41596;BME280;27283;52.504;13.358;2023-03-04T05:27:19;101232.78;;;3.03;98.17
41596;BME280;27283;52.504;13.358;2023-03-04T05:29:53;101224.59;;;2.93;98.69
41596;BME280;27283;52.504;13.358;2023-03-04T05:32:25;101229.63;;;3.10;98.21
41596;BME280;27283;52.504;13.358;2023-03-04T05:34:56;101229.59;;;2.97;98.67
41596;BME280;27283;52.504;13.358;2023-03-04T05:37:27;101221.00;;;3.32;97.80
41596;BME280;27283;52.504;13.358;2023-03-04T05:39:59;101227.59;;;3.01;98.74
41596;BME280;27283;52.504;13.358;2023-03-04T05:42:31;101223.56;;;3.08;98.70
41596;BME280;27283;52.504;13.358;2023-03-04T05:45:07;101221.00;;;3.19;98.67
41596;BME280;27283;52.504;13.358;2023-03-04T05:47:39;101223.13;;;3.01;99.28
41596;BME280;27283;52.504;13.358;2023-03-04T05:50:11;101213.34;;;3.15;99.27
41596;BME280;27283;52.504;13.358;2023-03-04T05:52:42;101215.16;;;3.14;98.95
41596;BME280;27283;52.504;13.358;2023-03-04T05:55:17;101216.13;;;3.26;98.83
41596;BME280;27283;52.504;13.358;2023-03-04T05:57:48;101219.09;;;3.09;99.64
41596;BME280;27283;52.504;13.358;2023-03-04T06:00:23;101213.66;;;3.10;100.00
41596;BME280;27283;52.504;13.358;2023-03-04T06:02:57;101221.44;;;3.00;100.00
41596;BME280;27283;52.504;13.358;2023-03-04T06:05:30;101219.72;;;3.12;100.00
41596;BME280;27283;52.504;13.358;2023-03-04T06:08:01;101216.34;;;3.23;100.00
41596;BME280;27283;52.504;13.358;2023-03-04T06:10:33;101217.69;;;3.03;100.00
41596;BME280;27283;52.504;13.358;2023-03-04T06:13:04;101214.81;;;3.06;100.00
41596;BME280;27283;52.504;13.358;2023-03-04T06:15:42;101220.69;;;3.11;100.00
41596;BME280;27283;52.504;13.358;2023-03-04T06:18:13;101218.78;;;3.13;100.00
41596;BME280;27283;52.504;13.358;2023-03-04T06:20:45;101219.72;;;3.25;100.00
41596;BME280;27283;52.504;13.358;2023-03-04T06:23:16;101226.00;;;3.11;100.00
41596;BME280;27283;52.504;13.358;2023-03-04T06:25:51;101219.28;;;3.18;100.00
41596;BME280;27283;52.504;13.358;2023-03-04T06:28:23;101223.22;;;3.39;100.00
41596;BME280;27283;52.504;13.358;2023-03-04T06:30:57;101228.44;;;3.27;100.00
41596;BME280;27283;52.504;13.358;2023-03-04T06:33:31;101222.94;;;3.17;100.00
41596;BME280;27283;52.504;13.358;2023-03-04T06:36:03;101219.09;;;3.09;100.00
41596;BME280;27283;52.504;13.358;2023-03-04T06:38:34;101217.81;;;3.14;100.00
41596;BME280;27283;52.504;13.358;2023-03-04T06:41:07;101218.66;;;3.15;100.00
41596;BME280;27283;52.504;13.358;2023-03-04T06:43:39;101225.66;;;3.03;100.00
41596;BME280;27283;52.504;13.358;2023-03-04T06:46:14;101228.78;;;3.10;100.00
41596;BME280;27283;52.504;13.358;2023-03-04T06:48:46;101220.13;;;3.32;100.00
41596;BME280;27283;52.504;13.358;2023-03-04T06:51:18;101229.59;;;3.36;100.00
41596;BME280;27283;52.504;13.358;2023-03-04T06:53:49;101225.13;;;3.11;100.00
41596;BME280;27283;52.504;13.358;2023-03-04T06:56:21;101221.09;;;3.44;100.00
41596;BME280;27283;52.504;13.358;2023-03-04T06:58:53;101222.59;;;3.22;100.00
41596;BME280;27283;52.504;13.358;2023-03-04T07:01:29;101222.69;;;3.33;100.00
41596;BME280;27283;52.504;13.358;2023-03-04T07:04:00;101223.34;;;3.24;100.00
41596;BME280;27283;52.504;13.358;2023-03-04T07:06:32;101226.22;;;3.21;100.00
41596;BME280;27283;52.504;13.358;2023-03-04T07:09:03;101230.56;;;3.22;100.00
41596;BME280;27283;52.504;13.358;2023-03-04T07:11:35;101224.59;;;3.18;100.00
41596;BME280;27283;52.504;13.358;2023-03-04T07:14:07;101241.06;;;3.11;100.00
41596;BME280;27283;52.504;13.358;2023-03-04T07:16:42;101229.63;;;3.10;100.00
41596;BME280;27283;52.504;13.358;2023-03-04T07:19:14;101232.59;;;3.31;100.00
41596;BME280;27283;52.504;13.358;2023-03-04T07:21:46;101228.66;;;3.24;100.00
41596;BME280;27283;52.504;13.358;2023-03-04T07:24:18;101224.72;;;3.30;100.00
41596;BME280;27283;52.504;13.358;2023-03-04T07:26:49;101231.28;;;3.50;100.00
41596;BME280;27283;52.504;13.358;2023-03-04T07:29:21;101229.50;;;3.37;100.00
41596;BME280;27283;52.504;13.358;2023-03-04T07:31:56;101223.97;;;3.53;100.00
41596;BME280;27283;52.504;13.358;2023-03-04T07:34:28;101233.19;;;3.61;100.00
41596;BME280;27283;52.504;13.358;2023-03-04T07:36:59;101228.31;;;3.67;100.00
41596;BME280;27283;52.504;13.358;2023-03-04T07:39:32;101225.78;;;3.40;100.00
41596;BME280;27283;52.504;13.358;2023-03-04T07:42:04;101227.25;;;3.70;100.00
41596;BME280;27283;52.504;13.358;2023-03-04T07:44:35;101225.94;;;3.76;100.00
41596;BME280;27283;52.504;13.358;2023-03-04T07:47:10;101219.31;;;3.81;100.00
41596;BME280;27283;52.504;13.358;2023-03-04T07:49:42;101229.56;;;3.62;100.00
41596;BME280;27283;52.504;13.358;2023-03-04T07:52:16;101216.84;;;3.41;100.00
41596;BME280;27283;52.504;13.358;2023-03-04T07:54:48;101228.03;;;3.83;100.00
41596;BME280;27283;52.504;13.358;2023-03-04T07:57:20;101223.19;;;4.01;100.00
41596;BME280;27283;52.504;13.358;2023-03-04T07:59:52;101224.75;;;4.17;100.00
41596;BME280;27283;52.504;13.358;2023-03-04T08:02:27;101230.94;;;4.04;100.00
41596;BME280;27283;52.504;13.358;2023-03-04T08:04:59;101218.53;;;4.05;100.00
41596;BME280;27283;52.504;13.358;2023-03-04T08:07:31;101225.50;;;4.06;100.00
41596;BME280;27283;52.504;13.358;2023-03-04T08:10:03;101227.28;;;3.94;100.00
41596;BME280;27283;52.504;13.358;2023-03-04T08:12:35;101229.22;;;4.16;100.00
41596;BME280;27283;52.504;13.358;2023-03-04T08:15:08;101220.47;;;3.90;100.00
41596;BME280;27283;52.504;13.358;2023-03-04T08:17:43;101206.88;;;3.82;100.00
41596;BME280;27283;52.504;13.358;2023-03-04T08:20:16;101216.59;;;4.07;100.00
41596;BME280;27283;52.504;13.358;2023-03-04T08:22:48;101218.22;;;4.21;100.00
41596;BME280;27283;52.504;13.358;2023-03-04T08:25:21;101221.44;;;4.13;100.00
41596;BME280;27283;52.504;13.358;2023-03-04T08:27:53;101211.34;;;4.42;100.00
41596;BME280;27283;52.504;13.358;2023-03-04T08:30:24;101214.22;;;3.91;100.00
41596;BME280;27283;52.504;13.358;2023-03-04T08:33:00;101221.44;;;4.37;100.00
41596;BME280;27283;52.504;13.358;2023-03-04T08:35:35;101212.00;;;4.33;100.00
41596;BME280;27283;52.504;13.358;2023-03-04T08:38:07;101211.25;;;4.31;100.00
41596;BME280;27283;52.504;13.358;2023-03-04T08:40:38;101210.13;;;4.22;100.00
41596;BME280;27283;52.504;13.358;2023-03-04T08:43:10;101208.50;;;4.33;100.00
41596;BME280;27283;52.504;13.358;2023-03-04T08:45:42;101203.78;;;4.60;95.99
41596;BME280;27283;52.504;13.358;2023-03-04T08:48:17;101209.63;;;4.41;94.37
41596;BME280;27283;52.504;13.358;2023-03-04T08:50:49;101203.13;;;4.57;90.96
41596;BME280;27283;52.504;13.358;2023-03-04T08:53:21;101202.31;;;4.56;89.24
41596;BME280;27283;52.504;13.358;2023-03-04T08:55:53;101200.94;;;4.51;89.99
41596;BME280;27283;52.504;13.358;2023-03-04T08:58:24;101201.19;;;4.83;89.93
41596;BME280;27283;52.504;13.358;2023-03-04T09:00:57;101204.19;;;4.90;90.97
41596;BME280;27283;52.504;13.358;2023-03-04T09:03:33;101204.63;;;4.61;90.87
41596;BME280;27283;52.504;13.358;2023-03-04T09:06:05;101197.03;;;4.79;91.10
41596;BME280;27283;52.504;13.358;2023-03-04T09:08:37;101194.84;;;4.73;92.26
41596;BME280;27283;52.504;13.358;2023-03-04T09:11:10;101189.56;;;4.95;90.52
41596;BME280;27283;52.504;13.358;2023-03-04T09:13:42;101190.69;;;5.04;90.49
41596;BME280;27283;52.504;13.358;2023-03-04T09:16:14;101203.50;;;4.99;90.37
41596;BME280;27283;52.504;13.358;2023-03-04T09:18:48;101206.81;;;5.37;90.26
41596;BME280;27283;52.504;13.358;2023-03-04T09:21:20;101203.41;;;5.12;89.20
41596;BME280;27283;52.504;13.358;2023-03-04T09:23:52;101202.84;;;4.84;90.41
41596;BME280;27283;52.504;13.358;2023-03-04T09:26:26;101209.06;;;4.85;90.56
41596;BME280;27283;52.504;13.358;2023-03-04T09:29:00;101208.47;;;5.04;90.45
41596;BME280;27283;52.504;13.358;2023-03-04T09:31:32;101202.84;;;4.84;88.79
41596;BME280;27283;52.504;13.358;2023-03-04T09:34:07;101213.81;;;5.26;87.46
41596;BME280;27283;52.504;13.358;2023-03-04T09:36:38;101215.75;;;5.36;86.42
41596;BME280;27283;52.504;13.358;2023-03-04T09:39:10;101216.38;;;5.62;84.87
41596;BME280;27283;52.504;13.358;2023-03-04T09:41:44;101219.78;;;5.75;84.98
41596;BME280;27283;52.504;13.358;2023-03-04T09:44:23;101228.38;;;5.45;85.98
41596;BME280;27283;52.504;13.358;2023-03-04T09:46:58;101219.91;;;5.51;84.12
41596;BME280;27283;52.504;13.358;2023-03-04T09:49:34;101218.56;;;5.57;84.66
41596;BME280;27283;52.504;13.358;2023-03-04T09:52:16;101216.72;;;5.12;83.74
41596;BME280;27283;52.504;13.358;2023-03-04T09:55:03;101215.06;;;5.56;82.27
41596;BME280;27283;52.504;13.358;2023-03-04T09:57:46;101225.22;;;5.40;81.79
41596;BME280;27283;52.504;13.358;2023-03-04T10:00:23;101216.16;;;5.65;82.01
41596;BME280;27283;52.504;13.358;2023-03-04T10:03:09;101212.97;;;5.71;81.77
41596;BME280;27283;52.504;13.358;2023-03-04T10:05:50;101218.53;;;5.79;82.19
41596;BME280;27283;52.504;13.358;2023-03-04T10:08:35;101216.88;;;5.56;83.04
41596;BME280;27283;52.504;13.358;2023-03-04T10:11:13;101213.94;;;5.70;82.85
41596;BME280;27283;52.504;13.358;2023-03-04T10:14:00;101217.47;;;5.37;82.27
41596;BME280;27283;52.504;13.358;2023-03-04T10:16:39;101217.69;;;5.45;82.63
41596;BME280;27283;52.504;13.358;2023-03-04T10:19:26;101218.91;;;5.29;82.97
41596;BME280;27283;52.504;13.358;2023-03-04T10:22:16;101211.41;;;5.46;81.59
41596;BME280;27283;52.504;13.358;2023-03-04T10:24:51;101213.59;;;5.63;80.63
41596;BME280;27283;52.504;13.358;2023-03-04T10:27:25;101224.75;;;5.46;81.56
41596;BME280;27283;52.504;13.358;2023-03-04T10:29:59;101219.78;;;5.41;80.76
41596;BME280;27283;52.504;13.358;2023-03-04T10:32:31;101209.34;;;5.49;80.30
41596;BME280;27283;52.504;13.358;2023-03-04T10:35:10;101210.44;;;5.58;77.91
41596;BME280;27283;52.504;13.358;2023-03-04T10:37:49;101212.38;;;5.33;78.53
41596;BME280;27283;52.504;13.358;2023-03-04T10:40:23;101212.13;;;5.37;77.27
41596;BME280;27283;52.504;13.358;2023-03-04T10:42:59;101219.13;;;5.94;73.92
41596;BME280;27283;52.504;13.358;2023-03-04T10:45:39;101206.28;;;6.43;71.00
41596;BME280;27283;52.504;13.358;2023-03-04T10:48:19;101217.44;;;6.48;73.13
41596;BME280;27283;52.504;13.358;2023-03-04T10:50:51;101215.72;;;6.15;69.98
41596;BME280;27283;52.504;13.358;2023-03-04T10:53:32;101211.22;;;6.27;68.78
41596;BME280;27283;52.504;13.358;2023-03-04T10:56:33;101204.63;;;6.31;69.22
41596;BME280;27283;52.504;13.358;2023-03-04T11:02:17;101206.00;;;6.14;69.24
41596;BME280;27283;52.504;13.358;2023-03-04T11:04:53;101218.53;;;5.91;68.19
41596;BME280;27283;52.504;13.358;2023-03-04T11:07:26;101213.66;;;5.96;67.79
41596;BME280;27283;52.504;13.358;2023-03-04T11:10:17;101220.94;;;6.05;67.89
41596;BME280;27283;52.504;13.358;2023-03-04T11:12:58;101215.75;;;5.92;68.84
41596;BME280;27283;52.504;13.358;2023-03-04T11:15:48;101220.47;;;5.89;70.23
41596;BME280;27283;52.504;13.358;2023-03-04T11:18:30;101216.44;;;6.17;68.28
41596;BME280;27283;52.504;13.358;2023-03-04T11:21:14;101224.13;;;6.10;68.29
41596;BME280;27283;52.504;13.358;2023-03-04T11:23:55;101219.34;;;6.14;68.07
41596;BME280;27283;52.504;13.358;2023-03-04T11:26:37;101219.53;;;5.67;69.33
41596;BME280;27283;52.504;13.358;2023-03-04T11:29:17;101224.59;;;5.93;69.25
41596;BME280;27283;52.504;13.358;2023-03-04T11:31:59;101231.53;;;5.73;69.83
41596;BME280;27283;52.504;13.358;2023-03-04T11:34:43;101222.28;;;6.11;69.16
41596;BME280;27283;52.504;13.358;2023-03-04T11:37:23;101239.28;;;5.87;68.58
41596;BME280;27283;52.504;13.358;2023-03-04T11:40:02;101228.97;;;5.60;68.89
41596;BME280;27283;52.504;13.358;2023-03-04T11:42:41;101229.72;;;5.50;69.15
41596;BME280;27283;52.504;13.358;2023-03-04T11:45:20;101222.16;;;5.90;68.17
41596;BME280;27283;52.504;13.358;2023-03-04T11:48:03;101231.53;;;5.50;68.67
41596;BME280;27283;52.504;13.358;2023-03-04T11:50:45;101225.31;;;5.95;67.60
41596;BME280;27283;52.504;13.358;2023-03-04T11:53:36;101227.78;;;5.64;65.89
41596;BME280;27283;52.504;13.358;2023-03-04T11:56:20;101223.88;;;6.02;65.65
41596;BME280;27283;52.504;13.358;2023-03-04T11:59:35;101217.69;;;5.79;65.87
41596;BME280;27283;52.504;13.358;2023-03-04T12:02:14;101229.84;;;5.49;66.12
41596;BME280;27283;52.504;13.358;2023-03-04T12:05:16;101230.34;;;5.77;65.99
41596;BME280;27283;52.504;13.358;2023-03-04T12:08:11;101229.59;;;5.41;66.42
41596;BME280;27283;52.504;13.358;2023-03-04T12:10:53;101227.03;;;6.07;63.85
41596;BME280;27283;52.504;13.358;2023-03-04T12:13:41;101223.88;;;5.91;64.20
41596;BME280;27283;52.504;13.358;2023-03-04T12:16:36;101233.34;;;5.49;64.57
41596;BME280;27283;52.504;13.358;2023-03-04T12:19:25;101231.03;;;5.33;64.42
41596;BME280;27283;52.504;13.358;2023-03-04T12:22:14;101219.28;;;5.25;64.27
41596;BME280;27283;52.504;13.358;2023-03-04T12:27:54;101218.28;;;6.05;61.73
41596;BME280;27283;52.504;13.358;2023-03-04T12:30:51;101221.00;;;5.71;62.21
41596;BME280;27283;52.504;13.358;2023-03-04T12:33:34;101220.84;;;5.84;62.05
41596;BME280;27283;52.504;13.358;2023-03-04T12:36:15;101229.97;;;5.47;63.08
41596;BME280;27283;52.504;13.358;2023-03-04T12:39:04;101224.16;;;5.42;63.23
41596;BME280;27283;52.504;13.358;2023-03-04T12:41:46;101228.38;;;5.45;63.36
41596;BME280;27283;52.504;13.358;2023-03-04T12:44:21;101223.03;;;5.45;63.56
41596;BME280;27283;52.504;13.358;2023-03-04T12:47:12;101220.50;;;5.55;64.02
41596;BME280;27283;52.504;13.358;2023-03-04T12:50:02;101224.50;;;5.38;62.62
41596;BME280;27283;52.504;13.358;2023-03-04T12:52:47;101225.22;;;5.40;63.03
41596;BME280;27283;52.504;13.358;2023-03-04T12:55:31;101221.34;;;5.66;61.57
41596;BME280;27283;52.504;13.358;2023-03-04T12:58:14;101237.59;;;5.97;61.09
41596;BME280;27283;52.504;13.358;2023-03-04T13:01:03;101223.75;;;5.36;63.02
41596;BME280;27283;52.504;13.358;2023-03-04T13:03:46;101226.34;;;5.48;62.77
41596;BME280;27283;52.504;13.358;2023-03-04T13:06:38;101222.44;;;5.64;61.70
41596;BME280;27283;52.504;13.358;2023-03-04T13:09:20;101221.84;;;5.60;61.72
41596;BME280;27283;52.504;13.358;2023-03-04T13:12:03;101214.06;;;5.68;61.59
41596;BME280;27283;52.504;13.358;2023-03-04T13:15:17;101226.22;;;5.50;61.56
41596;BME280;27283;52.504;13.358;2023-03-04T13:17:55;101221.09;;;5.36;63.22
41596;BME280;27283;52.504;13.358;2023-03-04T13:20:39;101226.31;;;5.26;62.60
41596;BME280;27283;52.504;13.358;2023-03-04T13:23:27;101222.34;;;5.31;62.68
41596;BME280;27283;52.504;13.358;2023-03-04T13:26:32;101229.81;;;5.15;63.15
41596;BME280;27283;52.504;13.358;2023-03-04T13:29:30;101227.78;;;5.30;63.10
41596;BME280;27283;52.504;13.358;2023-03-04T13:32:10;101227.78;;;5.30;63.67
41596;BME280;27283;52.504;13.358;2023-03-04T13:34:48;101236.03;;;5.38;63.11
41596;BME280;27283;52.504;13.358;2023-03-04T13:37:56;101225.81;;;5.43;63.35